CheckWX is a tool to help pilots better visualize weather data.  It is not intended as a substitute for an official pre-flight weather briefing.

03:25:15 UTC

CYLW METAR
Kelowna International Airport
Kelowna, Canada
Current

25 mins ago

CYLW 260300Z AUTO 16003KT 9SM BKN095 OVC120 14/13 A2989 RMK SLP126 DENSITY ALT 1600FT
Observed
May-26 @ 03:00 UTC
Wind
  • 160° at 3 KTS
Visibility
9 SM
Flight Rules
VFR
Cloud Levels
  • Broken at 9,500' AGL
  • Overcast at 12,000' AGL
Temperature
14°C / 57°F
Dewpoint
13°C / 55°F
Humidity
94%
Altimeter
29.89" Hg
Pressure
1012.22 hPa
Previous

1 hour ago

CYLW 260200Z AUTO 35005KT 9SM SCT090 SCT110 14/13 A2987 RMK SLP120 DENSITY ALT 1700FT
Observed
May-26 @ 02:00 UTC
Wind
  • 350° at 5 KTS
Visibility
9 SM
Flight Rules
VFR
Cloud Levels
  • Scattered at 9,000' AGL
  • Scattered at 11,000' AGL
Temperature
14°C / 57°F
Dewpoint
13°C / 55°F
Humidity
94%
Altimeter
29.87" Hg
Pressure
1011.52 hPa
Previous

2 hours ago

CYLW 260107Z AUTO VRB05KT 9SM BKN090 16/13 A2987 RMK LTNG DIST N SLP118 DENSITY ALT 1800FT
Observed
May-26 @ 01:07 UTC
Wind
  • Variable at 5 KTS
Visibility
9 SM
Flight Rules
VFR
Cloud Levels
  • Broken at 9,000' AGL
Temperature
16°C / 61°F
Dewpoint
13°C / 55°F
Humidity
83%
Altimeter
29.87" Hg
Pressure
1011.52 hPa